createdAt,value
2022-12-09T00:01:30.801Z,44.90
2022-12-09T00:03:59.702Z,43.70
2022-12-09T00:06:31.032Z,40.70
2022-12-09T00:08:59.985Z,44.10
2022-12-09T00:11:29.640Z,39.80
2022-12-09T00:14:00.258Z,50.50
2022-12-09T00:16:29.587Z,41.10
2022-12-09T00:18:59.166Z,44.60
2022-12-09T00:21:32.557Z,41.40
2022-12-09T00:24:06.472Z,47.90
2022-12-09T00:26:35.831Z,47.50
2022-12-09T00:29:05.020Z,45.10
2022-12-09T00:31:36.764Z,47.90
2022-12-09T00:34:12.009Z,42.10
2022-12-09T00:36:41.002Z,47.50
2022-12-09T00:39:12.691Z,47.40
2022-12-09T00:41:41.508Z,52.60
2022-12-09T00:44:12.315Z,55.70
2022-12-09T00:46:41.199Z,44.20
2022-12-09T00:49:11.087Z,49.20
2022-12-09T00:51:39.812Z,44.70
2022-12-09T00:54:08.939Z,47.60
2022-12-09T00:56:37.775Z,41.40
2022-12-09T00:59:06.518Z,42.40
2022-12-09T01:01:35.357Z,45.90
2022-12-09T01:04:09.015Z,37.60
2022-12-09T01:06:37.925Z,39.20
2022-12-09T01:09:06.730Z,43.00
2022-12-09T01:11:35.446Z,39.40
2022-12-09T01:14:04.732Z,41.00
2022-12-09T01:16:35.241Z,39.40
2022-12-09T01:19:08.949Z,40.90
2022-12-09T01:21:38.868Z,38.60
2022-12-09T01:24:12.049Z,38.30
2022-12-09T01:26:41.027Z,40.80
2022-12-09T01:29:09.802Z,37.60
2022-12-09T01:31:38.897Z,38.80
2022-12-09T01:34:08.119Z,37.50
2022-12-09T01:36:36.948Z,36.80
2022-12-09T01:39:06.412Z,38.00
2022-12-09T01:41:35.862Z,36.10
2022-12-09T01:44:19.582Z,30.30
2022-12-09T01:46:49.508Z,28.60
2022-12-09T01:49:28.259Z,31.00
2022-12-09T01:52:06.467Z,33.40
2022-12-09T01:54:35.875Z,27.90
2022-12-09T01:57:06.538Z,31.90
2022-12-09T01:59:37.837Z,28.10
2022-12-09T02:02:10.911Z,30.60
2022-12-09T02:04:42.718Z,32.00
2022-12-09T02:07:12.292Z,30.60
2022-12-09T02:09:43.695Z,28.30
2022-12-09T02:12:14.251Z,26.70
2022-12-09T02:15:29.767Z,30.30
2022-12-09T02:18:03.778Z,26.20
2022-12-09T02:21:01.215Z,28.50
2022-12-09T02:23:41.730Z,26.10
2022-12-09T02:26:37.404Z,27.00
2022-12-09T02:29:39.495Z,23.70
2022-12-09T02:32:23.637Z,27.10
2022-12-09T02:35:03.708Z,24.50
2022-12-09T02:37:44.144Z,28.20
2022-12-09T02:40:25.000Z,29.50
2022-12-09T02:42:55.887Z,24.10
2022-12-09T02:45:29.413Z,28.80
2022-12-09T02:48:02.295Z,27.50
2022-12-09T02:53:11.461Z,25.40
2022-12-09T02:55:44.218Z,28.40
2022-12-09T02:58:13.068Z,26.10
2022-12-09T03:00:42.560Z,25.60
2022-12-09T03:03:17.710Z,26.40
2022-12-09T03:06:13.933Z,25.00
2022-12-09T03:09:03.325Z,29.60
2022-12-09T03:11:33.849Z,29.70
2022-12-09T03:14:03.864Z,32.50
2022-12-09T03:17:05.500Z,28.40
2022-12-09T03:19:46.628Z,29.20
2022-12-09T03:22:23.528Z,31.50
2022-12-09T03:25:11.122Z,29.50
2022-12-09T03:27:57.950Z,37.00
2022-12-09T03:30:26.786Z,35.50
2022-12-09T03:32:57.222Z,43.40
2022-12-09T03:35:34.409Z,42.70
2022-12-09T03:38:07.855Z,31.30
2022-12-09T03:40:38.376Z,36.20
2022-12-09T03:43:19.880Z,41.70
2022-12-09T03:45:49.841Z,40.40
2022-12-09T03:48:19.095Z,38.90
2022-12-09T03:51:06.293Z,41.30
2022-12-09T03:53:42.619Z,42.10
2022-12-09T03:56:27.458Z,48.40
2022-12-09T03:59:00.127Z,43.20
2022-12-09T04:01:31.992Z,46.90
2022-12-09T04:04:00.838Z,40.00
2022-12-09T04:06:29.898Z,41.70
2022-12-09T04:09:02.396Z,39.70
2022-12-09T04:14:01.851Z,41.60
2022-12-09T04:16:31.145Z,44.00
2022-12-09T04:19:00.073Z,48.60
2022-12-09T04:21:28.921Z,48.90
2022-12-09T04:23:57.676Z,48.70
2022-12-09T04:26:28.227Z,50.90
2022-12-09T04:28:57.424Z,48.30
2022-12-09T04:31:26.623Z,49.70
2022-12-09T04:33:55.568Z,44.50
2022-12-09T04:36:24.511Z,49.60
2022-12-09T04:38:53.560Z,49.80
2022-12-09T04:41:22.239Z,54.90
2022-12-09T04:43:51.056Z,46.50
2022-12-09T04:46:19.899Z,36.50
2022-12-09T04:48:48.709Z,45.70
2022-12-09T04:51:17.709Z,54.60
2022-12-09T04:53:46.479Z,51.70
2022-12-09T04:56:21.552Z,42.20
2022-12-09T04:58:51.847Z,42.90
2022-12-09T05:01:30.308Z,41.40
2022-12-09T05:04:00.562Z,46.60
2022-12-09T05:06:29.864Z,47.80
2022-12-09T05:08:59.564Z,38.90
2022-12-09T05:11:28.943Z,39.60
2022-12-09T05:13:58.532Z,49.50
2022-12-09T05:16:28.090Z,47.60
2022-12-09T05:19:00.078Z,52.10
2022-12-09T05:21:29.380Z,47.50
2022-12-09T05:23:58.960Z,49.80
2022-12-09T05:26:27.868Z,53.10
2022-12-09T05:28:56.718Z,51.40
2022-12-09T05:31:26.069Z,49.40
2022-12-09T05:33:55.555Z,52.00
2022-12-09T05:36:27.824Z,55.70
2022-12-09T05:38:56.760Z,56.60
2022-12-09T05:41:26.062Z,47.50
2022-12-09T05:43:55.073Z,50.90
2022-12-09T05:46:24.343Z,47.60
2022-12-09T05:48:53.381Z,45.60
2022-12-09T05:51:26.675Z,66.60
2022-12-09T05:53:58.246Z,63.60
2022-12-09T05:56:28.286Z,63.90
2022-12-09T05:58:57.362Z,37.20
2022-12-09T06:01:27.856Z,57.40
2022-12-09T06:03:57.056Z,47.70
2022-12-09T06:06:28.885Z,42.90
2022-12-09T06:09:02.778Z,37.30
2022-12-09T06:11:32.917Z,52.60
2022-12-09T06:14:02.308Z,53.10
2022-12-09T06:16:31.390Z,54.70
2022-12-09T06:19:00.613Z,48.30
2022-12-09T06:21:29.891Z,45.90
2022-12-09T06:23:59.309Z,46.40
2022-12-09T06:26:30.875Z,49.50
2022-12-09T06:29:00.552Z,49.30
2022-12-09T06:31:30.191Z,45.10
2022-12-09T06:33:59.964Z,53.30
2022-12-09T06:36:31.447Z,45.60
2022-12-09T06:39:09.555Z,43.60
2022-12-09T06:41:43.322Z,39.50
2022-12-09T06:44:19.876Z,48.60
2022-12-09T06:46:50.691Z,49.30
2022-12-09T06:49:20.649Z,53.70
2022-12-09T06:51:49.909Z,51.40
2022-12-09T06:54:19.296Z,57.20
2022-12-09T06:56:49.045Z,45.10
2022-12-09T06:59:18.851Z,52.40
2022-12-09T07:01:48.015Z,55.90
2022-12-09T07:04:17.144Z,50.90
2022-12-09T07:06:47.925Z,57.30
2022-12-09T07:09:21.112Z,55.60
2022-12-09T07:14:19.541Z,49.10
2022-12-09T07:16:48.939Z,50.90
2022-12-09T07:19:22.419Z,51.20
2022-12-09T07:21:52.403Z,47.70
2022-12-09T07:24:22.026Z,36.50
2022-12-09T07:26:51.551Z,47.60
2022-12-09T07:29:20.757Z,47.80
2022-12-09T07:31:50.459Z,41.10
2022-12-09T07:34:19.595Z,46.90
2022-12-09T07:36:48.322Z,48.00
2022-12-09T07:39:19.256Z,53.80
2022-12-09T07:41:57.041Z,40.80
2022-12-09T07:44:29.959Z,50.90
2022-12-09T07:46:59.345Z,47.90
2022-12-09T07:49:28.405Z,46.30
2022-12-09T07:51:57.468Z,44.00
2022-12-09T07:54:26.489Z,39.90
2022-12-09T07:56:55.429Z,41.20
2022-12-09T07:59:24.195Z,35.20
2022-12-09T08:01:52.968Z,36.60
2022-12-09T08:04:21.798Z,37.80
2022-12-09T08:06:51.088Z,30.20
2022-12-09T08:09:20.122Z,34.60
2022-12-09T08:11:49.443Z,36.40
2022-12-09T08:14:18.230Z,35.90
2022-12-09T08:16:46.971Z,37.20
2022-12-09T08:19:15.715Z,38.40
2022-12-09T08:21:48.406Z,37.60
2022-12-09T08:24:20.403Z,39.90
2022-12-09T08:26:51.387Z,38.70
2022-12-09T08:29:20.806Z,38.80
2022-12-09T08:31:49.917Z,39.70
2022-12-09T08:34:19.820Z,38.00
2022-12-09T08:36:48.939Z,38.50
2022-12-09T08:39:18.146Z,38.60
2022-12-09T08:41:47.257Z,37.30
2022-12-09T08:44:21.000Z,34.70
2022-12-09T08:46:52.798Z,37.60
2022-12-09T08:49:23.297Z,38.70
2022-12-09T08:51:53.889Z,33.70
2022-12-09T08:54:23.245Z,34.90
2022-12-09T08:56:55.419Z,37.80
2022-12-09T08:59:25.303Z,33.10
2022-12-09T09:01:54.513Z,33.50
2022-12-09T09:04:24.143Z,33.80
2022-12-09T09:06:54.160Z,41.30
2022-12-09T09:09:23.674Z,49.40
2022-12-09T09:11:52.668Z,49.30
2022-12-09T09:14:21.901Z,39.10
2022-12-09T09:16:50.864Z,44.60
2022-12-09T09:19:25.737Z,140.30
2022-12-09T09:21:56.142Z,37.70
2022-12-09T09:24:26.703Z,32.70
2022-12-09T09:26:56.773Z,47.90
2022-12-09T09:29:25.601Z,80.80
2022-12-09T09:31:55.373Z,45.30
2022-12-09T09:34:27.444Z,42.20
2022-12-09T09:36:57.136Z,51.20
2022-12-09T09:39:26.594Z,34.50
2022-12-09T09:42:03.232Z,34.80
2022-12-09T09:44:47.685Z,29.40
2022-12-09T09:47:23.280Z,30.10
2022-12-09T09:50:05.897Z,28.60
2022-12-09T09:52:40.767Z,25.80
2022-12-09T09:55:24.526Z,23.80
2022-12-09T09:58:13.027Z,19.80
2022-12-09T10:00:58.413Z,19.10
2022-12-09T10:03:47.121Z,28.40
2022-12-09T10:06:24.941Z,18.60
2022-12-09T10:09:24.852Z,19.90
2022-12-09T10:12:19.176Z,19.80
2022-12-09T10:15:05.246Z,18.50
2022-12-09T10:17:53.359Z,17.60
2022-12-09T10:20:29.671Z,20.60
2022-12-09T10:23:07.196Z,18.40
2022-12-09T10:25:44.547Z,16.20
2022-12-09T10:28:27.765Z,22.40
2022-12-09T10:30:57.378Z,26.30
2022-12-09T10:33:39.218Z,28.90
2022-12-09T10:36:32.189Z,16.80
2022-12-09T10:39:06.009Z,22.00
2022-12-09T10:42:04.711Z,32.20
2022-12-09T10:44:33.531Z,21.80
2022-12-09T10:47:29.503Z,26.70
2022-12-09T10:50:00.299Z,28.50
2022-12-09T10:52:39.815Z,30.40
2022-12-09T10:55:26.448Z,15.40
2022-12-09T10:58:26.855Z,14.70
2022-12-09T11:01:03.125Z,20.90
2022-12-09T11:03:39.716Z,20.90
2022-12-09T11:06:38.207Z,18.00
2022-12-09T11:09:07.411Z,16.10
2022-12-09T11:11:50.465Z,15.50
2022-12-09T11:14:28.119Z,21.20
2022-12-09T11:17:11.415Z,40.20
2022-12-09T11:19:42.662Z,20.90
2022-12-09T11:22:40.813Z,22.00
2022-12-09T11:25:13.023Z,26.80
2022-12-09T11:27:59.016Z,24.00
2022-12-09T11:31:27.262Z,18.30
2022-12-09T11:33:53.199Z,24.30
2022-12-09T11:36:32.610Z,21.00
2022-12-09T11:39:25.283Z,33.50
2022-12-09T11:42:18.848Z,16.10
2022-12-09T11:44:59.347Z,17.10
2022-12-09T11:48:12.860Z,325.80
2022-12-09T11:50:33.201Z,761.80
2022-12-09T11:53:25.811Z,371.70
2022-12-09T11:56:12.570Z,477.40
2022-12-09T11:59:14.380Z,363.60
2022-12-09T12:01:58.946Z,550.10
2022-12-09T12:05:10.917Z,81.40
2022-12-09T12:07:47.828Z,126.70
2022-12-09T12:10:34.780Z,157.90
2022-12-09T12:13:40.524Z,22.60
2022-12-09T12:16:31.604Z,27.10
2022-12-09T12:19:22.652Z,145.20
2022-12-09T12:22:39.372Z,179.20
2022-12-09T12:25:45.168Z,21.80
2022-12-09T12:28:35.282Z,47.40
2022-12-09T12:31:09.809Z,27.60
2022-12-09T12:34:40.752Z,226.90
2022-12-09T12:37:47.590Z,75.40
2022-12-09T12:41:09.938Z,163.10
2022-12-09T12:44:28.642Z,155.50
2022-12-09T12:46:57.490Z,56.90
2022-12-09T12:50:17.231Z,21.40
2022-12-09T12:53:42.634Z,69.30
2022-12-09T12:56:32.088Z,26.10
2022-12-09T12:59:27.915Z,50.90
2022-12-09T13:02:16.225Z,95.30
2022-12-09T13:04:57.733Z,66.50
2022-12-09T13:07:54.100Z,108.00
2022-12-09T13:10:35.401Z,26.60
2022-12-09T13:13:06.067Z,25.00
2022-12-09T13:15:42.109Z,33.80
2022-12-09T13:18:17.641Z,20.40
2022-12-09T13:20:58.243Z,46.30
2022-12-09T13:23:43.855Z,73.00
2022-12-09T13:26:48.419Z,43.10
2022-12-09T13:29:55.000Z,46.30
2022-12-09T13:33:05.549Z,94.00
2022-12-09T13:36:36.095Z,107.30
2022-12-09T13:39:05.768Z,43.30
2022-12-09T13:41:54.520Z,38.70
2022-12-09T13:44:29.801Z,27.90
2022-12-09T13:47:28.789Z,27.60
2022-12-09T13:50:03.313Z,25.40
2022-12-09T13:52:53.043Z,30.40
2022-12-09T13:55:53.269Z,33.50
2022-12-09T13:58:27.816Z,38.90
2022-12-09T14:01:24.213Z,35.90
2022-12-09T14:03:56.789Z,169.40
2022-12-09T14:06:41.647Z,98.90
2022-12-09T14:09:44.169Z,31.70
2022-12-09T14:12:44.931Z,54.50
2022-12-09T14:15:25.568Z,26.60
2022-12-09T14:18:05.233Z,46.50
2022-12-09T14:20:38.645Z,26.50
2022-12-09T14:23:12.491Z,33.80
2022-12-09T14:25:56.187Z,79.20
2022-12-09T14:28:52.823Z,59.90
2022-12-09T14:31:50.547Z,76.40
2022-12-09T14:34:32.688Z,33.30
2022-12-09T14:37:27.287Z,63.30
2022-12-09T14:40:19.668Z,55.10
2022-12-09T14:43:39.274Z,60.50
2022-12-09T14:46:32.647Z,52.40
2022-12-09T14:49:29.221Z,125.70
2022-12-09T14:52:02.988Z,33.80
2022-12-09T14:54:52.975Z,52.30
2022-12-09T14:57:41.805Z,28.00
2022-12-09T15:00:36.367Z,34.80
2022-12-09T15:03:36.867Z,87.20
2022-12-09T15:06:29.985Z,38.60
2022-12-09T15:09:00.001Z,75.30
2022-12-09T15:11:35.261Z,50.10
2022-12-09T15:14:26.720Z,42.50
2022-12-09T15:16:56.877Z,74.50
2022-12-09T15:22:31.639Z,33.60
2022-12-09T15:25:02.616Z,50.70
2022-12-09T15:27:31.723Z,51.80
2022-12-09T15:30:00.720Z,31.60
2022-12-09T15:32:31.261Z,38.20
2022-12-09T15:35:24.091Z,37.20
2022-12-09T15:37:57.498Z,34.20
2022-12-09T15:40:29.528Z,52.60
2022-12-09T15:43:06.141Z,37.60
2022-12-09T15:45:43.378Z,39.60
2022-12-09T15:48:22.176Z,31.80
2022-12-09T15:51:07.696Z,31.30
2022-12-09T15:53:43.684Z,35.20
2022-12-09T15:56:28.417Z,42.30
2022-12-09T15:59:07.455Z,35.10
2022-12-09T16:01:37.113Z,33.90
2022-12-09T16:04:08.815Z,40.80
2022-12-09T16:06:38.442Z,38.40
2022-12-09T16:09:33.475Z,33.70
2022-12-09T16:12:02.531Z,31.40
2022-12-09T16:14:44.904Z,36.70
2022-12-09T16:17:24.939Z,47.50
2022-12-09T16:19:54.629Z,33.60
2022-12-09T16:22:33.090Z,48.10
2022-12-09T16:25:23.699Z,35.10
2022-12-09T16:28:01.930Z,34.80
2022-12-09T16:30:33.646Z,38.00
2022-12-09T16:33:03.777Z,39.70
2022-12-09T16:35:40.641Z,40.20
2022-12-09T16:38:12.054Z,36.20
2022-12-09T16:40:46.914Z,32.10
2022-12-09T16:43:19.181Z,38.70
2022-12-09T16:46:00.318Z,33.80
2022-12-09T16:48:30.939Z,33.40
2022-12-09T16:51:12.841Z,36.80
2022-12-09T16:53:48.910Z,36.50
2022-12-09T16:56:28.224Z,37.10
2022-12-09T16:58:59.398Z,41.80
2022-12-09T17:01:37.099Z,37.20
2022-12-09T17:04:25.280Z,43.70
2022-12-09T17:06:55.306Z,36.50
2022-12-09T17:09:24.189Z,37.00
2022-12-09T17:11:53.055Z,37.10
2022-12-09T17:14:22.014Z,35.70
2022-12-09T17:16:50.742Z,37.70
2022-12-09T17:19:21.952Z,42.00
2022-12-09T17:21:52.457Z,37.80
2022-12-09T17:24:21.192Z,38.80
2022-12-09T17:26:49.985Z,38.10
2022-12-09T17:29:18.745Z,36.90
2022-12-09T17:31:49.936Z,36.50
2022-12-09T17:34:19.754Z,39.10
2022-12-09T17:36:48.529Z,41.20
2022-12-09T17:39:17.393Z,36.30
2022-12-09T17:41:46.174Z,36.20
2022-12-09T17:44:16.351Z,37.00
2022-12-09T17:46:45.202Z,34.80
2022-12-09T17:49:14.049Z,36.30
2022-12-09T17:51:42.993Z,34.70
2022-12-09T17:54:12.005Z,37.80
2022-12-09T17:56:40.809Z,36.50
2022-12-09T17:59:13.600Z,37.50
2022-12-09T18:01:44.400Z,34.50
2022-12-09T18:04:14.871Z,37.50
2022-12-09T18:06:46.479Z,39.20
2022-12-09T18:09:18.585Z,35.40
2022-12-09T18:11:47.531Z,33.00
2022-12-09T18:14:16.699Z,36.60
2022-12-09T18:16:46.742Z,33.30
2022-12-09T18:19:18.455Z,32.70
2022-12-09T18:21:47.263Z,36.50
2022-12-09T18:24:17.183Z,35.60
2022-12-09T18:26:46.157Z,33.30
2022-12-09T18:29:15.077Z,39.00
2022-12-09T18:31:45.958Z,32.40
2022-12-09T18:34:16.019Z,36.60
2022-12-09T18:36:44.849Z,35.30
2022-12-09T18:39:13.664Z,37.60
2022-12-09T18:41:45.796Z,34.80
2022-12-09T18:44:16.220Z,32.20
2022-12-09T18:46:49.041Z,33.60
2022-12-09T18:49:27.260Z,34.60
2022-12-09T18:51:56.376Z,36.40
2022-12-09T18:54:29.157Z,35.00
2022-12-09T18:56:58.641Z,35.40
2022-12-09T18:59:28.219Z,30.70
2022-12-09T19:01:57.776Z,29.40
2022-12-09T19:06:47.263Z,37.30
2022-12-09T19:09:26.701Z,32.00
2022-12-09T19:11:55.939Z,37.40
2022-12-09T19:14:25.286Z,35.80
2022-12-09T19:16:55.949Z,34.00
2022-12-09T19:19:27.514Z,37.20
2022-12-09T19:21:57.365Z,41.50
2022-12-09T19:24:30.730Z,38.60
2022-12-09T19:26:59.739Z,41.90
2022-12-09T19:29:28.684Z,35.90
2022-12-09T19:31:57.574Z,40.60
2022-12-09T19:34:31.043Z,38.00
2022-12-09T19:37:01.831Z,37.10
2022-12-09T19:39:31.550Z,38.40
2022-12-09T19:42:01.860Z,33.70
2022-12-09T19:44:59.461Z,33.80
2022-12-09T19:47:19.563Z,41.50
2022-12-09T19:49:49.036Z,33.70
2022-12-09T19:52:18.694Z,37.90
2022-12-09T19:54:47.496Z,39.00
2022-12-09T19:57:16.403Z,41.10
2022-12-09T19:59:46.083Z,42.80
2022-12-09T20:02:15.312Z,36.30
2022-12-09T20:04:49.168Z,37.10
2022-12-09T20:07:20.516Z,45.30
2022-12-09T20:09:49.614Z,46.40
2022-12-09T20:12:19.084Z,44.40
2022-12-09T20:14:47.842Z,39.40
2022-12-09T20:17:17.598Z,42.30
2022-12-09T20:19:47.274Z,38.40
2022-12-09T20:22:16.009Z,42.90
2022-12-09T20:24:44.945Z,41.00
2022-12-09T20:27:13.800Z,37.60
2022-12-09T20:29:42.863Z,41.10
2022-12-09T20:32:11.795Z,39.20
2022-12-09T20:34:40.970Z,34.80
2022-12-09T20:37:10.089Z,34.40
2022-12-09T20:39:39.002Z,32.10
2022-12-09T20:42:07.828Z,31.90
2022-12-09T20:44:36.696Z,27.70
2022-12-09T20:47:05.603Z,27.00
2022-12-09T20:49:34.448Z,29.50
2022-12-09T20:52:03.362Z,24.60
2022-12-09T20:54:32.489Z,27.50
2022-12-09T20:57:01.625Z,24.10
2022-12-09T20:59:30.645Z,27.60
2022-12-09T21:02:00.363Z,24.60
2022-12-09T21:04:29.213Z,27.10
2022-12-09T21:06:58.221Z,26.70
2022-12-09T21:09:29.408Z,28.70
2022-12-09T21:11:58.661Z,27.10
2022-12-09T21:14:32.682Z,29.50
2022-12-09T21:17:02.502Z,27.20
2022-12-09T21:19:32.706Z,26.40
2022-12-09T21:22:01.551Z,24.50
2022-12-09T21:24:30.349Z,27.40
2022-12-09T21:26:59.428Z,27.30
2022-12-09T21:29:31.963Z,25.00
2022-12-09T21:32:02.226Z,24.50
2022-12-09T21:34:31.518Z,25.40
2022-12-09T21:37:00.312Z,25.20
2022-12-09T21:39:29.154Z,25.20
2022-12-09T21:41:57.968Z,24.40
2022-12-09T21:44:28.389Z,23.30
2022-12-09T21:46:57.540Z,26.20
2022-12-09T21:49:26.633Z,21.90
2022-12-09T21:51:55.480Z,24.80
2022-12-09T21:54:24.396Z,26.00
2022-12-09T21:56:53.345Z,27.40
2022-12-09T21:59:22.525Z,24.20
2022-12-09T22:01:51.412Z,30.10
2022-12-09T22:04:20.265Z,23.50
2022-12-09T22:06:51.157Z,27.80
2022-12-09T22:09:21.305Z,28.80
2022-12-09T22:11:50.653Z,31.80
2022-12-09T22:14:19.676Z,30.50
2022-12-09T22:16:48.648Z,29.20
2022-12-09T22:19:21.249Z,29.50
2022-12-09T22:21:50.203Z,30.60
2022-12-09T22:24:19.487Z,32.40
2022-12-09T22:26:48.528Z,32.80
2022-12-09T22:29:18.455Z,32.00
2022-12-09T22:31:47.894Z,31.00
2022-12-09T22:34:20.438Z,31.60
2022-12-09T22:36:50.360Z,33.80
2022-12-09T22:39:24.660Z,36.50
2022-12-09T22:41:55.039Z,31.60
2022-12-09T22:44:23.827Z,34.20
2022-12-09T22:46:52.673Z,33.80
2022-12-09T22:49:21.913Z,32.90
2022-12-09T22:51:50.694Z,28.60
2022-12-09T22:54:19.530Z,34.90
2022-12-09T22:56:48.591Z,33.60
2022-12-09T22:59:18.400Z,35.00
2022-12-09T23:01:50.318Z,34.50
2022-12-09T23:04:23.723Z,36.90
2022-12-09T23:06:52.758Z,35.70
2022-12-09T23:09:25.276Z,36.20
2022-12-09T23:11:54.635Z,32.80
2022-12-09T23:14:23.526Z,32.60
2022-12-09T23:16:52.580Z,33.20
2022-12-09T23:19:21.924Z,36.00
2022-12-09T23:21:50.701Z,33.10
2022-12-09T23:24:24.728Z,36.20
2022-12-09T23:26:56.462Z,35.80
2022-12-09T23:29:25.376Z,37.90
2022-12-09T23:31:54.382Z,31.80
2022-12-09T23:34:23.977Z,29.30
2022-12-09T23:36:52.879Z,33.90
2022-12-09T23:39:21.865Z,35.50
2022-12-09T23:41:50.742Z,35.90
2022-12-09T23:44:19.671Z,32.00
2022-12-09T23:46:49.029Z,37.60
2022-12-09T23:49:17.884Z,31.60
2022-12-09T23:51:46.934Z,36.30
2022-12-09T23:54:18.344Z,28.80
2022-12-09T23:56:51.178Z,29.50
2022-12-09T23:59:22.076Z,30.90
